Terminal Aerodrome Forecast
Issued by NWS Wilmington, OH

Current Version | Previous Version | Text Only | Print | Product List | Glossary Off
Versions: 1 2 3 4 5 6 7 8 9 10 11 12 13 14 15 16 17 18 19 20 21 22 23 24 25 26 27 28 29 30 31 32 33 34

126
FTUS41 KILN 232330
TAFILN
TAF
KILN 232330Z 2400/2424 19003KT 2SM RA BR SCT009 OVC110
     FM240300 23006KT P6SM VCSH OVC025
     FM240600 32007KT 4SM BR BKN220
     FM241300 28009KT P6SM SCT250
     FM241700 28012G20KT P6SM SCT090=

USA.gov is the U.S. government's official web portal to all federal, state and local government web resources and services.